Time;durP1;ratioP1;P1;durP2;ratioP2;P2;SDS_P1;SDS_P2;PMS_P1;PMS_P2;Temp;Humidity;BMP_temperature;BMP_pressure;BME280_temperature;BME280_humidity;BME280_pressure;Samples;Min_cycle;Max_cycle;Signal;HPM_P1;HPM_P2
2022/07/13 00:01:18;;;;;;;2.00;1.70;;;17.00;99.90;;;;;;5033198;28;20443;-49
2022/07/13 00:03:45;;;;;;;3.33;1.70;;;16.80;99.90;;;;;;5033449;28;20871;-47
2022/07/13 00:06:12;;;;;;;2.50;2.07;;;16.60;99.90;;;;;;5033336;28;20437;-50
2022/07/13 00:08:39;;;;;;;1.80;1.60;;;16.70;99.90;;;;;;5033207;28;20466;-54
2022/07/13 00:11:06;;;;;;;2.00;1.73;;;16.80;99.90;;;;;;5033122;28;20592;-48
2022/07/13 00:13:35;;;;;;;2.17;1.60;;;16.90;99.90;;;;;;5033128;28;20430;-46
2022/07/13 00:16:02;;;;;;;2.07;1.53;;;17.00;99.90;;;;;;5033088;28;20447;-47
2022/07/13 00:18:29;;;;;;;1.63;1.53;;;17.10;99.90;;;;;;5032644;28;20470;-49
2022/07/13 00:20:57;;;;;;;2.83;1.90;;;16.70;99.90;;;;;;5032933;28;20508;-47
2022/07/13 00:23:24;;;;;;;1.83;1.60;;;16.60;99.90;;;;;;5032842;28;20978;-48
2022/07/13 00:25:51;;;;;;;2.20;1.53;;;16.80;99.90;;;;;;5033007;28;20499;-46
2022/07/13 00:28:18;;;;;;;2.33;1.70;;;16.90;99.90;;;;;;5032942;28;20442;-48
2022/07/13 00:30:46;;;;;;;1.93;1.70;;;16.90;99.90;;;;;;5032646;28;20450;-46
2022/07/13 00:33:13;;;;;;;1.90;1.60;;;16.70;99.90;;;;;;5032818;28;20478;-46
2022/07/13 00:35:40;;;;;;;5.30;1.50;;;16.90;99.90;;;;;;5032868;28;20442;-48
2022/07/13 00:38:07;;;;;;;1.53;1.30;;;17.00;99.90;;;;;;5032646;28;20853;-47
2022/07/13 00:40:35;;;;;;;2.60;1.60;;;17.00;99.90;;;;;;5032392;28;20438;-49
2022/07/13 00:43:02;;;;;;;2.10;1.80;;;16.70;99.90;;;;;;5032545;28;20470;-46
2022/07/13 00:45:29;;;;;;;2.10;1.60;;;16.90;99.90;;;;;;5032713;28;20454;-49
2022/07/13 00:47:58;;;;;;;1.93;1.60;;;17.00;99.90;;;;;;5032679;28;20500;-47
2022/07/13 00:50:26;;;;;;;2.13;1.83;;;16.90;99.90;;;;;;5032354;28;20500;-48
2022/07/13 00:52:54;;;;;;;2.97;1.83;;;17.00;99.90;;;;;;5032288;28;20543;-50
2022/07/13 00:55:21;;;;;;;2.70;1.63;;;16.80;99.90;;;;;;5032354;28;20491;-48
2022/07/13 00:57:48;;;;;;;1.87;1.43;;;16.70;99.90;;;;;;5032213;28;20470;-46
2022/07/13 01:00:16;;;;;;;2.67;2.20;;;16.70;99.90;;;;;;5031630;28;20450;-47
2022/07/13 01:02:46;;;;;;;2.77;1.50;;;16.60;99.90;;;;;;5032186;28;20562;-46
2022/07/13 01:05:15;;;;;;;2.00;1.70;;;16.70;99.90;;;;;;5032318;28;20937;-47
2022/07/13 01:07:43;;;;;;;1.57;1.03;;;16.70;99.90;;;;;;5031574;28;20454;-50
2022/07/13 01:10:12;;;;;;;2.43;1.60;;;16.50;99.90;;;;;;5031897;28;20454;-47
2022/07/13 01:12:40;;;;;;;1.60;1.37;;;16.70;99.90;;;;;;5032010;28;20470;-47
2022/07/13 01:15:08;;;;;;;1.77;1.30;;;16.70;99.90;;;;;;5032086;28;20441;-48
2022/07/13 01:17:37;;;;;;;2.40;1.60;;;16.80;99.90;;;;;;5031981;28;20442;-47
2022/07/13 01:20:05;;;;;;;2.20;1.80;;;16.80;99.90;;;;;;5031473;28;20441;-48
2022/07/13 01:22:37;;;;;;;2.83;1.50;;;16.50;99.90;;;;;;5031754;28;20477;-48
2022/07/13 01:25:07;;;;;;;3.30;1.83;;;16.40;99.90;;;;;;5032000;28;20512;-47
2022/07/13 01:27:36;;;;;;;3.60;1.77;;;16.50;99.90;;;;;;5031988;28;20451;-47
2022/07/13 01:30:05;;;;;;;2.23;1.67;;;16.40;99.90;;;;;;5031645;28;20450;-46
2022/07/13 01:32:43;;;;;;;2.50;1.60;;;16.50;99.90;;;;;;5031655;28;20474;-51
2022/07/13 01:35:10;;;;;;;2.13;1.60;;;16.40;99.90;;;;;;5031741;28;20861;-48
2022/07/13 01:37:38;;;;;;;1.87;1.40;;;16.30;99.90;;;;;;5031549;28;21002;-49
2022/07/13 01:40:08;;;;;;;1.60;1.50;;;16.20;99.90;;;;;;5031481;28;20450;-46
2022/07/13 01:42:41;;;;;;;1.90;1.40;;;16.30;99.90;;;;;;5031550;28;20532;-47
2022/07/13 01:45:10;;;;;;;2.37;1.57;;;16.30;99.90;;;;;;5031423;28;20942;-47
2022/07/13 01:47:38;;;;;;;1.60;1.50;;;16.40;99.90;;;;;;5031780;28;20531;-49
2022/07/13 01:50:07;;;;;;;1.70;1.30;;;16.30;99.90;;;;;;5031387;28;20446;-46
2022/07/13 01:52:35;;;;;;;2.47;1.73;;;16.30;99.90;;;;;;5031155;28;20474;-49
2022/07/13 01:55:02;;;;;;;2.17;1.27;;;16.40;99.90;;;;;;5031359;28;20512;-46
2022/07/13 01:57:31;;;;;;;1.70;1.30;;;16.50;99.90;;;;;;5031227;28;20943;-50
2022/07/13 01:59:59;;;;;;;1.80;1.50;;;16.60;99.90;;;;;;5030853;28;20450;-47
2022/07/13 02:02:26;;;;;;;2.60;1.17;;;16.40;99.90;;;;;;5030921;28;20501;-47
2022/07/13 02:04:55;;;;;;;1.80;1.47;;;16.40;99.90;;;;;;5031191;28;20465;-46
2022/07/13 02:07:22;;;;;;;1.73;1.40;;;16.20;99.90;;;;;;5031301;28;20470;-50
2022/07/13 02:09:49;;;;;;;2.33;1.90;;;16.10;99.90;;;;;;5030834;28;20450;-46
2022/07/13 02:12:16;;;;;;;2.80;1.57;;;16.20;99.90;;;;;;5031016;28;20474;-50
2022/07/13 02:14:46;;;;;;;2.77;1.90;;;16.10;99.90;;;;;;5031397;28;20482;-48
2022/07/13 02:17:13;;;;;;;2.07;1.67;;;16.10;99.90;;;;;;5030804;28;20484;-47
2022/07/13 02:19:40;;;;;;;5.77;1.47;;;16.10;99.90;;;;;;5029369;28;21169;-46
2022/07/13 02:22:08;;;;;;;3.77;1.60;;;15.90;99.90;;;;;;5030703;28;20477;-47
2022/07/13 02:24:35;;;;;;;2.47;1.63;;;16.00;99.90;;;;;;5030636;28;20947;-51
2022/07/13 02:27:02;;;;;;;3.70;1.80;;;16.10;99.90;;;;;;5030782;28;20496;-47
2022/07/13 02:29:29;;;;;;;2.47;1.50;;;16.00;99.90;;;;;;5030349;28;20434;-46
2022/07/13 02:31:58;;;;;;;2.00;1.27;;;16.00;99.90;;;;;;5030662;28;20524;-46
2022/07/13 02:34:27;;;;;;;3.03;1.70;;;16.10;99.90;;;;;;5030683;28;20508;-46
2022/07/13 02:36:54;;;;;;;2.30;1.67;;;15.70;99.90;;;;;;5030317;28;20439;-48
2022/07/13 02:39:22;;;;;;;2.73;1.77;;;15.90;99.90;;;;;;5030023;28;20478;-46
2022/07/13 02:41:49;;;;;;;2.00;1.63;;;16.10;99.90;;;;;;5030381;28;20462;-47
2022/07/13 02:44:16;;;;;;;4.80;1.63;;;16.10;99.90;;;;;;5030366;28;20438;-50
2022/07/13 02:46:43;;;;;;;2.87;1.53;;;16.20;99.90;;;;;;5030450;28;20504;-46
2022/07/13 02:49:11;;;;;;;1.70;1.50;;;16.00;99.90;;;;;;5029823;28;20894;-48
2022/07/13 02:51:38;;;;;;;1.77;1.60;;;15.90;99.90;;;;;;5030524;28;20926;-49
2022/07/13 02:54:06;;;;;;;2.43;1.83;;;16.00;99.90;;;;;;5030423;28;20874;-47
2022/07/13 02:56:33;;;;;;;1.90;1.50;;;16.10;99.90;;;;;;5030305;28;20531;-49
2022/07/13 02:59:00;;;;;;;2.23;1.37;;;16.00;99.90;;;;;;5029847;28;20803;-47
2022/07/13 03:01:26;;;;;;;2.30;1.70;;;16.10;99.90;;;;;;5029635;28;20986;-46
2022/07/13 03:03:53;;;;;;;3.30;1.73;;;16.20;99.90;;;;;;5030185;28;20592;-47
2022/07/13 03:06:22;;;;;;;2.70;1.90;;;16.10;99.90;;;;;;5029984;28;20496;-46
2022/07/13 03:08:49;;;;;;;2.27;1.57;;;16.20;99.90;;;;;;5029905;28;20505;-46
2022/07/13 03:11:16;;;;;;;2.67;1.83;;;16.20;99.90;;;;;;5030015;28;20454;-48
2022/07/13 03:13:43;;;;;;;3.80;1.80;;;16.10;99.90;;;;;;5030048;28;20454;-47
2022/07/13 03:16:10;;;;;;;2.70;1.70;;;15.90;99.90;;;;;;5029892;28;20438;-50
2022/07/13 03:18:37;;;;;;;2.47;1.53;;;16.10;99.90;;;;;;5029714;28;20892;-47
2022/07/13 03:21:07;;;;;;;2.20;1.80;;;16.20;99.90;;;;;;5030033;28;20449;-47
2022/07/13 03:23:35;;;;;;;2.00;1.50;;;16.10;99.90;;;;;;5029921;28;20541;-47
2022/07/13 03:26:02;;;;;;;2.70;1.50;;;16.20;99.90;;;;;;5029881;28;20688;-49
2022/07/13 03:28:29;;;;;;;2.67;1.70;;;16.20;99.90;;;;;;5030227;28;20496;-47
2022/07/13 03:30:56;;;;;;;7.70;1.97;;;16.10;99.90;;;;;;5031512;28;20478;-48
2022/07/13 03:33:24;;;;;;;2.20;1.70;;;16.10;99.90;;;;;;5033962;28;20528;-47
2022/07/13 03:35:51;;;;;;;1.70;1.30;;;16.10;99.90;;;;;;5034166;28;20473;-47
2022/07/13 03:38:18;;;;;;;1.70;1.30;;;15.90;99.90;;;;;;5033768;28;20450;-47
2022/07/13 03:40:46;;;;;;;2.23;1.50;;;15.90;99.90;;;;;;5033732;28;20446;-47
2022/07/13 03:43:13;;;;;;;1.80;1.57;;;15.70;99.90;;;;;;5034178;28;20524;-48
2022/07/13 03:45:40;;;;;;;2.80;1.90;;;15.30;99.90;;;;;;5033709;28;21009;-48
2022/07/13 03:48:07;;;;;;;2.73;1.50;;;15.50;99.90;;;;;;5033980;28;20529;-47
2022/07/13 03:50:35;;;;;;;2.20;1.50;;;15.70;99.90;;;;;;5033245;28;20435;-47
2022/07/13 03:53:02;;;;;;;1.70;1.20;;;15.70;99.90;;;;;;5069451;22;20502;-48
2022/07/13 03:55:29;;;;;;;1.90;1.60;;;15.80;99.90;;;;;;5073643;28;20479;-46
2022/07/13 03:57:57;;;;;;;2.23;1.50;;;15.70;99.90;;;;;;5073550;28;20452;-45
2022/07/13 04:00:24;;;;;;;2.43;1.90;;;15.50;99.90;;;;;;5072532;28;20480;-45
2022/07/13 04:02:51;;;;;;;3.20;2.47;;;15.60;99.90;;;;;;5073280;28;20460;-48
2022/07/13 04:05:18;;;;;;;3.20;1.47;;;15.70;99.90;;;;;;5073359;28;20440;-46
2022/07/13 04:07:45;;;;;;;1.83;1.40;;;15.60;99.90;;;;;;5073684;28;20452;-50
2022/07/13 04:10:12;;;;;;;1.70;1.50;;;15.70;99.90;;;;;;5073062;28;20485;-46
2022/07/13 04:12:42;;;;;;;2.10;1.57;;;15.90;99.90;;;;;;5072905;28;20831;-52
2022/07/13 04:15:11;;;;;;;2.93;1.90;;;15.90;99.90;;;;;;5073210;28;20543;-49
2022/07/13 04:17:38;;;;;;;2.10;1.60;;;15.90;99.90;;;;;;5073065;28;20551;-46
2022/07/13 04:20:06;;;;;;;2.33;1.60;;;15.90;99.90;;;;;;5072351;28;21020;-45
2022/07/13 04:22:33;;;;;;;2.17;1.70;;;15.80;99.90;;;;;;5072985;28;20487;-46
2022/07/13 04:25:00;;;;;;;2.27;1.73;;;15.60;99.90;;;;;;5072997;28;20444;-47
2022/07/13 04:27:27;;;;;;;1.60;1.27;;;15.30;99.90;;;;;;5072975;28;21006;-46
2022/07/13 04:29:54;;;;;;;1.73;1.63;;;15.50;99.90;;;;;;5072673;28;20440;-50
2022/07/13 04:32:23;;;;;;;2.03;1.80;;;15.40;99.90;;;;;;5072761;28;20472;-46
2022/07/13 04:34:50;;;;;;;1.70;1.50;;;15.60;99.90;;;;;;5073117;28;20444;-46
2022/07/13 04:37:17;;;;;;;1.70;1.33;;;15.60;99.90;;;;;;5072790;28;20440;-50
2022/07/13 04:39:44;;;;;;;2.10;1.70;;;15.40;99.90;;;;;;5072227;28;20475;-46
2022/07/13 04:42:11;;;;;;;2.53;1.60;;;15.20;99.90;;;;;;5071542;28;20801;-48
2022/07/13 04:44:38;;;;;;;2.43;1.90;;;15.20;99.90;;;;;;5072831;28;20827;-46
2022/07/13 04:47:05;;;;;;;2.03;1.53;;;15.30;99.90;;;;;;5072619;28;20497;-46
2022/07/13 04:49:33;;;;;;;2.13;1.60;;;15.50;99.90;;;;;;5072261;28;20511;-48
2022/07/13 04:52:00;;;;;;;1.67;1.57;;;15.40;99.90;;;;;;5072274;28;20483;-48
2022/07/13 04:54:27;;;;;;;2.20;1.57;;;15.50;99.90;;;;;;5072469;28;20506;-46
2022/07/13 04:56:54;;;;;;;1.93;1.67;;;15.60;99.90;;;;;;5072108;28;20796;-50
2022/07/13 04:59:21;;;;;;;1.90;1.50;;;15.80;99.90;;;;;;5071988;28;20475;-46
2022/07/13 05:01:48;;;;;;;1.80;1.37;;;15.70;99.90;;;;;;5071673;28;20933;-48
2022/07/13 05:04:15;;;;;;;1.73;1.57;;;15.80;99.90;;;;;;5072208;28;21016;-46
2022/07/13 05:06:43;;;;;;;3.33;1.50;;;15.90;99.90;;;;;;5072272;28;20509;-47
2022/07/13 05:09:10;;;;;;;2.67;1.53;;;15.90;99.90;;;;;;5071829;28;20478;-46
2022/07/13 05:11:39;;;;;;;2.97;1.87;;;15.90;99.90;;;;;;5072189;28;20949;-45
2022/07/13 05:14:06;;;;;;;2.37;1.80;;;15.90;99.90;;;;;;5071848;28;20484;-46
2022/07/13 05:16:33;;;;;;;2.20;1.53;;;15.90;99.90;;;;;;5072081;28;20460;-48
2022/07/13 05:19:00;;;;;;;2.20;1.57;;;15.90;99.90;;;;;;5071527;28;20555;-46
2022/07/13 05:21:28;;;;;;;2.33;1.83;;;15.90;99.90;;;;;;5071803;28;20441;-52
2022/07/13 05:23:56;;;;;;;5.60;3.57;;;15.60;99.90;;;;;;5071706;28;20519;-46
2022/07/13 05:26:23;;;;;;;2.20;1.50;;;15.70;99.90;;;;;;5071914;28;20456;-46
2022/07/13 05:28:50;;;;;;;2.90;1.50;;;15.70;99.90;;;;;;5071591;28;20788;-50
2022/07/13 05:31:17;;;;;;;2.23;1.77;;;15.60;99.90;;;;;;5071784;28;20537;-46
2022/07/13 05:33:44;;;;;;;3.50;2.13;;;15.50;99.90;;;;;;5071618;28;20517;-48
2022/07/13 05:36:11;;;;;;;2.87;1.77;;;15.60;99.90;;;;;;5071540;28;20449;-46
2022/07/13 05:38:38;;;;;;;3.20;1.90;;;15.40;99.90;;;;;;5071506;28;20502;-46
2022/07/13 05:41:06;;;;;;;3.37;1.77;;;15.40;99.90;;;;;;5071074;28;20492;-47
2022/07/13 05:43:33;;;;;;;2.50;1.70;;;15.60;99.90;;;;;;5071420;28;20517;-46
2022/07/13 05:46:00;;;;;;;2.30;1.90;;;15.50;99.90;;;;;;5071487;28;20445;-45
2022/07/13 05:48:28;;;;;;;2.77;1.50;;;15.50;99.90;;;;;;5071469;28;20925;-46
2022/07/13 05:50:55;;;;;;;2.40;1.33;;;15.50;99.90;;;;;;5071051;28;20432;-49
2022/07/13 05:53:22;;;;;;;2.00;1.50;;;15.60;99.90;;;;;;5070749;28;20468;-47
2022/07/13 05:55:49;;;;;;;1.93;1.30;;;15.50;99.90;;;;;;5071235;28;20449;-48
2022/07/13 05:58:17;;;;;;;1.67;1.40;;;15.70;99.90;;;;;;5071194;28;21011;-48
2022/07/13 06:00:44;;;;;;;2.07;1.27;;;15.80;99.90;;;;;;5070299;28;20919;-47
2022/07/13 06:03:11;;;;;;;1.90;1.20;;;15.90;99.90;;;;;;5070874;28;20817;-48
2022/07/13 06:05:38;;;;;;;2.20;1.90;;;15.90;99.90;;;;;;5071140;28;20444;-48
2022/07/13 06:08:05;;;;;;;2.30;1.97;;;15.60;99.90;;;;;;5071068;28;20506;-45
2022/07/13 06:10:32;;;;;;;2.03;1.60;;;15.80;99.90;;;;;;5070643;28;20990;-49
2022/07/13 06:13:00;;;;;;;2.73;1.30;;;16.30;99.90;;;;;;5070883;28;20518;-48
2022/07/13 06:15:28;;;;;;;1.90;1.50;;;17.60;99.90;;;;;;5070720;28;20914;-50
2022/07/13 06:17:55;;;;;;;2.47;1.33;;;19.00;99.90;;;;;;5070699;28;20498;-48
2022/07/13 06:20:22;;;;;;;2.00;1.30;;;19.90;99.90;;;;;;5070170;28;20464;-49
2022/07/13 06:25:30;;;;;;;2.53;1.30;;;21.80;99.90;;;;;;5070401;28;20425;-46
2022/07/13 06:27:57;;;;;;;2.00;1.40;;;21.90;99.90;;;;;;5070588;28;20443;-48
2022/07/13 06:30:24;;;;;;;2.20;1.80;;;20.70;99.90;;;;;;5070301;28;20440;-48
2022/07/13 06:32:52;;;;;;;2.17;1.40;;;20.10;99.90;;;;;;5070416;28;20470;-48
2022/07/13 06:35:19;;;;;;;1.80;1.50;;;19.70;99.90;;;;;;5070519;28;20498;-50
2022/07/13 06:37:46;;;;;;;2.17;1.20;;;19.40;99.90;;;;;;5070432;28;20448;-47
2022/07/13 06:40:14;;;;;;;3.10;2.53;;;19.10;99.90;;;;;;5070037;28;20540;-48
2022/07/13 06:42:41;;;;;;;1.60;1.10;;;19.00;99.90;;;;;;5070257;28;20572;-47
2022/07/13 06:45:09;;;;;;;1.43;0.90;;;19.10;99.90;;;;;;5070230;28;20453;-46
2022/07/13 06:47:36;;;;;;;6.07;1.63;;;19.20;99.90;;;;;;5070161;28;20432;-47
2022/07/13 06:50:07;;;;;;;3.13;1.90;;;19.10;99.90;;;;;;5069935;28;20515;-46
2022/07/13 06:52:34;;;;;;;3.17;1.40;;;19.20;99.90;;;;;;5070209;28;20811;-48
2022/07/13 06:55:01;;;;;;;2.10;1.40;;;19.10;99.90;;;;;;5070337;28;20762;-49
2022/07/13 06:57:28;;;;;;;2.37;1.10;;;19.10;99.90;;;;;;5070141;28;20433;-47
2022/07/13 06:59:55;;;;;;;1.50;1.20;;;19.30;99.90;;;;;;5069708;28;20537;-47
2022/07/13 07:02:22;;;;;;;1.70;1.40;;;19.10;99.90;;;;;;5069633;28;20514;-48
2022/07/13 07:04:49;;;;;;;1.70;1.50;;;19.30;99.90;;;;;;5069679;28;21002;-46
2022/07/13 07:07:17;;;;;;;1.70;1.10;;;19.50;99.90;;;;;;5070034;28;20440;-52
2022/07/13 07:09:44;;;;;;;2.17;1.23;;;19.50;99.90;;;;;;5069800;28;20452;-48
2022/07/13 07:12:11;;;;;;;1.93;1.20;;;19.40;99.90;;;;;;5069953;28;20521;-46
2022/07/13 07:14:38;;;;;;;1.40;1.20;;;19.40;99.90;;;;;;5069844;28;20498;-50
2022/07/13 07:17:05;;;;;;;2.70;1.20;;;19.40;99.90;;;;;;5070139;28;20505;-47
2022/07/13 07:19:32;;;;;;;2.20;1.37;;;19.30;99.90;;;;;;5069474;28;20525;-47
2022/07/13 07:21:59;;;;;;;1.70;1.30;;;19.30;99.90;;;;;;5069635;28;20468;-46
2022/07/13 07:24:30;;;;;;;1.40;1.20;;;19.10;99.90;;;;;;5069684;28;20464;-47
2022/07/13 07:26:57;;;;;;;2.13;1.57;;;19.20;99.90;;;;;;5069706;28;20515;-46
2022/07/13 07:29:24;;;;;;;2.40;1.60;;;19.40;99.90;;;;;;5069613;28;20506;-49
2022/07/13 07:31:51;;;;;;;2.70;1.50;;;19.80;99.90;;;;;;5069738;28;20964;-46
2022/07/13 07:34:18;;;;;;;1.80;1.30;;;20.10;99.90;;;;;;5069769;28;20448;-50
2022/07/13 07:36:45;;;;;;;1.67;1.30;;;20.50;99.90;;;;;;5069608;28;20463;-50
2022/07/13 07:39:13;;;;;;;1.90;1.23;;;20.80;99.90;;;;;;5069500;28;20453;-48
2022/07/13 07:41:41;;;;;;;2.00;1.27;;;21.40;99.90;;;;;;5069618;28;20522;-46
2022/07/13 07:44:09;;;;;;;1.67;1.17;;;22.00;99.10;;;;;;5069683;28;20817;-47
2022/07/13 07:46:36;;;;;;;1.90;1.40;;;22.50;99.40;;;;;;5069611;28;20963;-47
2022/07/13 07:49:04;;;;;;;2.10;1.17;;;22.80;98.20;;;;;;5069423;28;20448;-48
2022/07/13 07:51:31;;;;;;;1.90;1.40;;;22.90;97.70;;;;;;5069561;28;21013;-48
2022/07/13 07:53:58;;;;;;;1.80;1.20;;;22.90;97.50;;;;;;5069391;28;20484;-49
2022/07/13 07:56:25;;;;;;;2.20;1.20;;;23.30;96.20;;;;;;5069605;28;20475;-52
2022/07/13 07:58:54;;;;;;;1.60;1.20;;;23.50;96.80;;;;;;5069298;28;20452;-47
2022/07/13 08:01:21;;;;;;;1.70;1.40;;;23.70;96.90;;;;;;5068810;28;20481;-46
2022/07/13 08:03:48;;;;;;;2.17;1.50;;;23.00;94.40;;;;;;5069534;28;20567;-47
2022/07/13 08:06:16;;;;;;;4.50;1.50;;;22.80;95.30;;;;;;5069495;28;20494;-47
2022/07/13 08:08:43;;;;;;;2.30;1.30;;;23.00;96.50;;;;;;5069258;28;20436;-47
2022/07/13 08:11:16;;;;;;;2.63;1.40;;;23.30;97.00;;;;;;5069336;28;20433;-52
2022/07/13 08:13:43;;;;;;;1.80;1.20;;;23.50;95.20;;;;;;5069287;28;20464;-47
2022/07/13 08:16:11;;;;;;;2.10;1.40;;;24.10;95.30;;;;;;5069595;28;20803;-48
2022/07/13 08:18:38;;;;;;;3.20;2.00;;;24.40;93.90;;;;;;5072810;28;20455;-50
2022/07/13 08:21:06;;;;;;;9.03;2.73;;;23.70;94.50;;;;;;5072752;28;20559;-47
2022/07/13 08:23:52;;;;;;;1.77;1.13;;;23.40;95.40;;;;;;5073020;28;20452;-46
2022/07/13 08:26:19;;;;;;;1.67;1.30;;;23.50;94.00;;;;;;5073025;28;20452;-51
2022/07/13 08:28:46;;;;;;;3.53;1.57;;;23.50;94.00;;;;;;5073082;28;20978;-45
2022/07/13 08:31:15;;;;;;;2.00;1.63;;;23.40;94.20;;;;;;5073100;28;20472;-51
2022/07/13 08:39:12;;;;;;;2.13;1.67;;;23.70;96.10;;;;;;5072519;28;20799;-47
2022/07/13 08:41:39;;;;;;;1.80;1.57;;;23.50;95.90;;;;;;5072430;28;20464;-47
2022/07/13 08:44:06;;;;;;;2.03;1.60;;;23.20;96.30;;;;;;5072642;28;20464;-47
2022/07/13 08:46:35;;;;;;;2.00;1.60;;;23.10;96.80;;;;;;5072531;28;20519;-48
2022/07/13 08:49:03;;;;;;;3.63;1.70;;;23.30;96.90;;;;;;5072222;28;20433;-53
2022/07/13 08:51:32;;;;;;;2.57;1.60;;;23.30;96.20;;;;;;5072483;28;20518;-49
2022/07/13 08:54:00;;;;;;;8.53;2.70;;;23.40;95.70;;;;;;5072458;28;20555;-46
2022/07/13 08:56:27;;;;;;;3.93;1.77;;;23.70;94.60;;;;;;5072434;28;20537;-47
2022/07/13 08:58:54;;;;;;;3.10;1.40;;;23.70;95.80;;;;;;5072169;28;20459;-48
2022/07/13 09:01:22;;;;;;;1.87;1.60;;;23.50;95.90;;;;;;5071934;28;20533;-47
2022/07/13 09:03:51;;;;;;;2.00;1.27;;;23.60;95.90;;;;;;5072241;28;20487;-51
2022/07/13 09:06:44;;;;;;;1.97;1.20;;;23.60;95.40;;;;;;5072103;28;20440;-49
2022/07/13 09:09:26;;;;;;;1.73;1.53;;;23.70;93.50;;;;;;5071850;28;20466;-51
2022/07/13 09:11:53;;;;;;;1.60;1.10;;;23.80;93.60;;;;;;5072098;28;20523;-48
2022/07/13 09:14:26;;;;;;;2.30;1.60;;;23.90;94.90;;;;;;5072203;28;20444;-48
2022/07/13 09:16:54;;;;;;;1.50;1.20;;;23.80;94.40;;;;;;5072058;28;20448;-49
2022/07/13 09:19:26;;;;;;;4.23;1.47;;;23.90;94.30;;;;;;5072043;28;20449;-47
2022/07/13 09:22:09;;;;;;;1.87;1.07;;;24.10;95.40;;;;;;5071684;28;21035;-47
2022/07/13 09:24:46;;;;;;;3.13;1.50;;;24.30;93.30;;;;;;5071974;28;20451;-48
2022/07/13 09:27:14;;;;;;;1.70;1.43;;;24.20;93.40;;;;;;5071881;28;20448;-48
2022/07/13 09:29:42;;;;;;;1.87;1.23;;;24.20;93.00;;;;;;5071078;28;20428;-47
2022/07/13 09:32:11;;;;;;;1.40;0.90;;;23.90;92.20;;;;;;5071688;28;20506;-52
2022/07/13 09:34:50;;;;;;;2.30;1.30;;;23.70;95.50;;;;;;5071567;28;20433;-47
2022/07/13 09:37:19;;;;;;;1.47;1.00;;;23.60;92.30;;;;;;5071718;28;20488;-48
2022/07/13 09:40:06;;;;;;;1.90;1.07;;;23.90;93.40;;;;;;5071588;28;21009;-48
2022/07/13 09:42:35;;;;;;;2.40;1.27;;;23.90;91.90;;;;;;5071462;28;20452;-51
2022/07/13 09:47:52;;;;;;;2.50;1.30;;;23.70;90.60;;;;;;5071424;28;20497;-47
2022/07/13 09:50:23;;;;;;;1.47;1.10;;;23.60;94.20;;;;;;5071240;28;20436;-48
2022/07/13 09:52:51;;;;;;;1.87;1.50;;;23.70;94.50;;;;;;5124201;22;20481;-50
2022/07/13 09:55:20;;;;;;;2.00;1.00;;;24.10;93.60;;;;;;5051325;28;20433;-52
2022/07/13 09:57:49;;;;;;;1.77;1.30;;;24.30;91.60;;;;;;5051267;28;20532;-47
2022/07/13 10:00:21;;;;;;;2.07;1.20;;;24.40;93.40;;;;;;5050840;28;20837;-50
2022/07/13 10:02:49;;;;;;;1.80;1.27;;;24.30;92.70;;;;;;5051067;28;20457;-46
2022/07/13 10:05:18;;;;;;;1.40;1.00;;;24.40;91.80;;;;;;5051277;28;20507;-45
2022/07/13 10:07:47;;;;;;;1.70;1.50;;;24.70;91.90;;;;;;5051080;28;20449;-46
2022/07/13 10:10:15;;;;;;;1.70;1.20;;;24.60;92.80;;;;;;5050627;28;20460;-49
2022/07/13 10:12:44;;;;;;;3.60;2.13;;;24.90;92.30;;;;;;5050772;28;20497;-45
2022/07/13 10:15:12;;;;;;;2.50;1.30;;;24.80;92.60;;;;;;5050901;28;20534;-45
2022/07/13 10:17:42;;;;;;;3.60;1.10;;;24.90;94.50;;;;;;5051051;28;20477;-45
2022/07/13 10:20:12;;;;;;;2.03;1.53;;;24.90;94.90;;;;;;5050406;28;21110;-45
2022/07/13 10:22:43;;;;;;;2.00;1.57;;;25.00;94.30;;;;;;5050579;28;20465;-46
2022/07/13 10:25:11;;;;;;;1.60;1.33;;;25.00;95.30;;;;;;5050642;28;20429;-46
2022/07/13 10:27:41;;;;;;;2.30;1.53;;;25.10;94.00;;;;;;5050751;28;20456;-48
2022/07/13 10:30:10;;;;;;;2.20;1.53;;;25.00;91.90;;;;;;5050405;28;20446;-45
2022/07/13 10:32:39;;;;;;;1.57;1.10;;;25.00;92.10;;;;;;5050492;28;20470;-47
2022/07/13 10:35:09;;;;;;;2.23;1.40;;;25.10;93.10;;;;;;5050574;28;20437;-45
2022/07/13 10:38:12;;;;;;;2.80;1.37;;;25.00;91.60;;;;;;5050467;28;20434;-48
2022/07/13 10:40:41;;;;;;;2.00;1.20;;;25.10;93.70;;;;;;5039029;28;20473;-48
2022/07/13 10:43:16;;;;;;;1.80;1.03;;;24.90;90.60;;;;;;5050287;28;20449;-46
2022/07/13 10:45:50;;;;;;;1.77;1.10;;;24.80;91.10;;;;;;5050398;28;20942;-45
2022/07/13 10:48:48;;;;;;;2.13;0.97;;;25.00;85.80;;;;;;5050198;28;20429;-45
2022/07/13 10:51:23;;;;;;;1.50;1.07;;;25.00;84.60;;;;;;5049528;28;21004;-46
2022/07/13 10:54:10;;;;;;;2.23;1.07;;;25.10;90.20;;;;;;5049854;28;20460;-48
2022/07/13 10:57:13;;;;;;;3.23;1.27;;;25.50;87.20;;;;;;5050217;28;20434;-45
2022/07/13 10:59:47;;;;;;;1.30;0.80;;;25.60;86.80;;;;;;5050039;28;20453;-47
2022/07/13 11:02:42;;;;;;;1.57;1.00;;;25.90;81.70;;;;;;5049464;28;20505;-47
2022/07/13 11:05:09;;;;;;;2.27;1.17;;;25.80;76.40;;;;;;5049901;28;20816;-47
2022/07/13 11:07:44;;;;;;;1.30;0.73;;;25.90;82.20;;;;;;5050159;28;20441;-45
2022/07/13 11:10:22;;;;;;;2.20;0.90;;;25.80;79.80;;;;;;5049781;28;20456;-47
2022/07/13 11:13:09;;;;;;;1.53;1.13;;;25.80;82.00;;;;;;5049812;28;20555;-49
2022/07/13 11:15:43;;;;;;;4.93;1.37;;;25.90;81.30;;;;;;5049853;28;20782;-48
2022/07/13 11:18:28;;;;;;;2.33;1.03;;;25.90;83.10;;;;;;5049979;28;20498;-45
2022/07/13 11:21:00;;;;;;;1.30;0.70;;;25.90;73.90;;;;;;5049565;28;20499;-48
2022/07/13 11:26:23;;;;;;;1.57;0.87;;;26.20;73.10;;;;;;5049784;28;20424;-49
2022/07/13 11:29:02;;;;;;;1.30;0.80;;;26.30;76.40;;;;;;5049674;28;20453;-48
2022/07/13 11:31:29;;;;;;;1.40;0.90;;;26.30;68.90;;;;;;5049734;28;20429;-47
2022/07/13 11:33:58;;;;;;;1.33;0.80;;;26.30;74.00;;;;;;5049717;28;20476;-49
2022/07/13 11:36:25;;;;;;;2.00;0.70;;;26.50;73.20;;;;;;5049741;28;20458;-50
2022/07/13 11:38:52;;;;;;;1.20;0.60;;;26.60;75.10;;;;;;5049336;28;20545;-50
2022/07/13 11:41:21;;;;;;;1.37;0.70;;;26.50;69.40;;;;;;5049543;28;20476;-47
2022/07/13 11:43:49;;;;;;;1.70;0.90;;;26.60;71.80;;;;;;5049515;28;20719;-48
2022/07/13 11:46:23;;;;;;;1.97;0.67;;;26.70;74.40;;;;;;5049711;28;20449;-49
2022/07/13 11:48:59;;;;;;;3.10;0.90;;;26.70;72.00;;;;;;5049311;28;20476;-48
2022/07/13 11:51:26;;;;;;;1.57;0.60;;;26.80;64.30;;;;;;5050425;28;20469;-48
2022/07/13 11:53:54;;;;;;;1.50;0.60;;;26.80;68.10;;;;;;5053289;28;20497;-52
2022/07/13 11:56:22;;;;;;;2.00;0.80;;;26.90;67.40;;;;;;5053489;28;20516;-47
2022/07/13 11:58:49;;;;;;;1.50;0.60;;;26.90;67.80;;;;;;5052860;28;20502;-47
2022/07/13 12:01:18;;;;;;;2.20;1.10;;;27.00;68.70;;;;;;5052989;28;20538;-47
2022/07/13 12:03:50;;;;;;;1.77;0.73;;;27.00;68.60;;;;;;5053283;28;20966;-49
2022/07/13 12:06:17;;;;;;;1.70;1.00;;;27.00;64.60;;;;;;5053487;28;20449;-50
2022/07/13 12:08:46;;;;;;;1.40;0.70;;;27.00;74.40;;;;;;5053176;28;20455;-51
2022/07/13 12:11:16;;;;;;;1.90;1.70;;;27.10;68.20;;;;;;5053074;28;20444;-49
2022/07/13 12:13:45;;;;;;;2.93;1.47;;;27.10;68.40;;;;;;5035198;28;20461;-47
2022/07/13 12:16:13;;;;;;;1.30;0.80;;;27.20;72.50;;;;;;5053248;28;20445;-48
2022/07/13 12:19:02;;;;;;;1.33;0.70;;;27.10;68.60;;;;;;5053039;28;20448;-48
2022/07/13 12:21:29;;;;;;;1.30;0.60;;;27.10;63.30;;;;;;5052922;28;20519;-49
2022/07/13 12:23:58;;;;;;;1.50;0.73;;;27.10;65.20;;;;;;5052838;28;20441;-49
2022/07/13 12:26:25;;;;;;;1.20;0.60;;;27.10;65.60;;;;;;5053109;28;20536;-48
2022/07/13 12:28:52;;;;;;;4.77;1.10;;;27.10;60.10;;;;;;5052937;28;20857;-48
2022/07/13 12:31:21;;;;;;;1.60;0.80;;;27.10;69.00;;;;;;5052842;28;20445;-51
2022/07/13 12:33:50;;;;;;;2.00;1.00;;;27.20;71.60;;;;;;5052643;28;20445;-51
2022/07/13 12:36:22;;;;;;;1.50;0.80;;;27.20;70.60;;;;;;5052984;28;20469;-49
2022/07/13 12:39:04;;;;;;;1.93;1.47;;;27.20;68.70;;;;;;5052481;28;20433;-48
2022/07/13 12:41:34;;;;;;;1.50;0.90;;;27.10;69.20;;;;;;5050810;28;20472;-48
2022/07/13 12:44:04;;;;;;;1.63;0.80;;;27.20;70.00;;;;;;5052530;28;20492;-50
2022/07/13 12:46:50;;;;;;;1.43;0.77;;;27.30;70.20;;;;;;5052470;28;20434;-49
2022/07/13 12:49:17;;;;;;;1.30;0.70;;;27.30;66.90;;;;;;5052222;28;20472;-50
2022/07/13 12:51:50;;;;;;;1.33;0.70;;;27.40;70.00;;;;;;5052580;28;20471;-48
2022/07/13 12:54:18;;;;;;;1.23;0.70;;;27.50;67.40;;;;;;5052294;28;20548;-48
2022/07/13 12:56:51;;;;;;;1.27;0.80;;;27.40;65.10;;;;;;5052288;28;20433;-50
2022/07/13 12:59:20;;;;;;;1.80;0.80;;;27.40;67.10;;;;;;5051892;28;20442;-48
2022/07/13 13:01:48;;;;;;;1.40;0.90;;;27.40;66.50;;;;;;5051778;28;20473;-47
2022/07/13 13:04:16;;;;;;;1.87;0.80;;;27.40;65.20;;;;;;5051195;28;21021;-49
2022/07/13 13:06:47;;;;;;;1.40;0.70;;;27.30;64.30;;;;;;5052089;28;20429;-49
2022/07/13 13:09:15;;;;;;;1.60;0.90;;;27.40;64.60;;;;;;5051891;28;20444;-50
2022/07/13 13:11:43;;;;;;;1.80;0.73;;;27.30;65.50;;;;;;5052244;28;20442;-48